createdAt,value
2023-04-01T00:01:44.411Z,97429.73
2023-04-01T00:04:13.117Z,97427.56
2023-04-01T00:06:42.229Z,97420.88
2023-04-01T00:17:11.347Z,97418.55
2023-04-01T00:19:39.006Z,97424.06
2023-04-01T00:22:06.785Z,97426.89
2023-04-01T00:24:34.325Z,97424.23
2023-04-01T00:27:01.995Z,97424.52
2023-04-01T00:29:31.184Z,97422.94
2023-04-01T00:31:58.895Z,97420.02
2023-04-01T00:34:27.027Z,97416.42
2023-04-01T00:36:54.794Z,97415.36
2023-04-01T00:39:22.453Z,97413.23
2023-04-01T00:41:50.419Z,97416.73
2023-04-01T00:44:27.006Z,97409.91
2023-04-01T00:46:57.229Z,97406.27
2023-04-01T00:49:27.444Z,97405.05
2023-04-01T00:51:56.123Z,97406.34
2023-04-01T00:54:24.093Z,97403.47
2023-04-01T00:56:57.065Z,97404.33
2023-04-01T00:59:31.767Z,97401.42
2023-04-01T01:01:58.990Z,97395.54
2023-04-01T01:04:27.845Z,97395.96
2023-04-01T01:07:26.526Z,97393.14
2023-04-01T01:10:03.508Z,97392.90
2023-04-01T01:12:59.535Z,97386.38
2023-04-01T01:15:47.182Z,97386.91
2023-04-01T01:18:33.562Z,97386.41
2023-04-01T01:21:21.408Z,97382.40
2023-04-01T01:24:07.719Z,97376.42
2023-04-01T01:26:45.093Z,97376.65
2023-04-01T01:29:37.326Z,97378.03
2023-04-01T01:32:26.097Z,97380.05
2023-04-01T01:35:31.866Z,97380.25
2023-04-01T01:38:02.723Z,97375.02
2023-04-01T01:40:30.434Z,97372.38
2023-04-01T01:43:01.081Z,97368.15
2023-04-01T01:45:28.318Z,97361.82
2023-04-01T01:47:55.913Z,97354.11
2023-04-01T01:50:23.745Z,97352.73
2023-04-01T01:52:51.424Z,97356.77
2023-04-01T01:55:28.290Z,97354.80
2023-04-01T01:57:58.817Z,97359.48
2023-04-01T02:00:26.986Z,97360.86
2023-04-01T02:02:55.179Z,97353.43
2023-04-01T02:05:24.458Z,97353.60
2023-04-01T02:08:15.848Z,97351.39
2023-04-01T02:10:47.328Z,97348.11
2023-04-01T02:13:22.767Z,97343.52
2023-04-01T02:15:50.556Z,97345.02
2023-04-01T02:18:18.408Z,97338.02
2023-04-01T02:20:50.054Z,97340.24
2023-04-01T02:23:18.226Z,97340.57
2023-04-01T02:25:45.706Z,97341.14
2023-04-01T02:28:14.984Z,97337.89
2023-04-01T02:30:43.062Z,97331.00
2023-04-01T02:33:15.122Z,97332.29
2023-04-01T02:35:43.310Z,97333.31
2023-04-01T02:38:10.906Z,97330.30
2023-04-01T02:40:50.289Z,97335.91
2023-04-01T02:43:20.526Z,97337.27
2023-04-01T02:45:52.380Z,97337.32
2023-04-01T02:48:20.138Z,97338.59
2023-04-01T02:50:47.492Z,97336.59
2023-04-01T02:53:16.290Z,97342.38
2023-04-01T02:55:45.598Z,97338.80
2023-04-01T02:58:19.614Z,97337.75
2023-04-01T03:00:47.285Z,97339.36
2023-04-01T03:03:15.701Z,97337.80
2023-04-01T03:05:43.908Z,97330.40
2023-04-01T03:08:12.390Z,97333.55
2023-04-01T03:40:05.541Z,97326.13
2023-04-01T03:42:34.977Z,97327.80
2023-04-01T03:45:05.264Z,97325.41
2023-04-01T03:47:32.583Z,97327.48
2023-04-01T03:50:00.498Z,97324.77
2023-04-01T03:52:28.359Z,97321.01
2023-04-01T03:54:55.604Z,97323.44
2023-04-01T03:57:25.834Z,97327.10
2023-04-01T03:59:53.997Z,97334.04
2023-04-01T04:02:21.501Z,97336.75
2023-04-01T04:04:49.046Z,97337.09
2023-04-01T04:07:16.569Z,97334.77
2023-04-01T04:10:00.425Z,97338.80
2023-04-01T04:12:27.664Z,97337.06
2023-04-01T04:14:55.738Z,97342.19
2023-04-01T04:17:23.398Z,97343.59
2023-04-01T04:19:51.878Z,97340.23
2023-04-01T04:22:19.848Z,97344.16
2023-04-01T04:24:47.405Z,97338.35
2023-04-01T04:27:15.482Z,97334.63
2023-04-01T04:29:49.389Z,97334.13
2023-04-01T04:32:17.660Z,97340.06
2023-04-01T04:34:45.330Z,97339.33
2023-04-01T04:37:12.366Z,97342.23
2023-04-01T04:39:40.465Z,97338.39
2023-04-01T04:42:07.907Z,97343.93
2023-04-01T04:44:36.324Z,97344.44
2023-04-01T04:47:03.761Z,97346.73
2023-04-01T04:49:33.354Z,97350.48
2023-04-01T04:52:03.149Z,97349.66
2023-04-01T04:54:30.605Z,97347.03
2023-04-01T04:57:01.376Z,97349.73
2023-04-01T04:59:32.222Z,97347.45
2023-04-01T05:02:07.037Z,97348.72
2023-04-01T05:04:36.717Z,97344.66
2023-04-01T05:07:04.523Z,97337.07
2023-04-01T05:09:32.758Z,97337.52
2023-04-01T05:12:03.186Z,97336.41
2023-04-01T05:14:40.072Z,97336.41
2023-04-01T05:17:12.741Z,97334.01
2023-04-01T05:19:40.605Z,97330.91
2023-04-01T05:22:08.166Z,97329.55
2023-04-01T05:24:54.256Z,97322.61
2023-04-01T05:35:05.814Z,97316.09
2023-04-01T05:37:37.449Z,97318.09
2023-04-01T05:40:09.007Z,97316.16
2023-04-01T05:42:38.457Z,97322.83
2023-04-01T05:45:08.637Z,97332.82
2023-04-01T05:48:04.337Z,97335.80
2023-04-01T05:50:38.150Z,97328.94
2023-04-01T05:53:07.246Z,97332.08
2023-04-01T05:55:37.479Z,97331.88
2023-04-01T05:58:06.361Z,97332.66
2023-04-01T06:00:35.559Z,97336.26
2023-04-01T06:03:24.099Z,97339.30
2023-04-01T06:05:52.796Z,97344.77
2023-04-01T06:08:26.819Z,97347.98
2023-04-01T06:11:01.426Z,97348.40
2023-04-01T06:14:08.412Z,97356.67
2023-04-01T06:17:04.239Z,97351.37
2023-04-01T06:19:57.710Z,97355.10
2023-04-01T06:22:49.227Z,97357.15
2023-04-01T06:25:37.265Z,97354.02
2023-04-01T06:28:28.370Z,97351.77
2023-04-01T06:31:27.694Z,97350.80
2023-04-01T06:34:00.561Z,97353.66
2023-04-01T06:36:41.501Z,97350.98
2023-04-01T06:39:24.562Z,97346.55
2023-04-01T06:41:56.228Z,97339.64
2023-04-01T06:44:49.854Z,97341.30
2023-04-01T06:47:50.746Z,97345.77
2023-04-01T06:50:55.048Z,97365.61
2023-04-01T06:54:01.723Z,97365.82
2023-04-01T06:56:51.270Z,97366.83
2023-04-01T06:59:29.960Z,97364.63
2023-04-01T07:02:08.964Z,97369.56
2023-04-01T07:04:40.909Z,97364.90
2023-04-01T07:07:36.624Z,97362.84
2023-04-01T07:10:13.916Z,97364.77
2023-04-01T07:13:03.769Z,97367.68
2023-04-01T07:16:04.835Z,97370.44
2023-04-01T07:18:42.629Z,97376.69
2023-04-01T07:21:33.753Z,97378.39
2023-04-01T07:24:10.457Z,97379.89
2023-04-01T07:26:45.626Z,97377.64
2023-04-01T07:29:17.253Z,97377.64
2023-04-01T07:32:15.487Z,97382.28
2023-04-01T07:34:52.056Z,97377.83
2023-04-01T07:37:32.110Z,97381.52
2023-04-01T07:40:19.639Z,97378.34
2023-04-01T07:43:06.572Z,97375.20
2023-04-01T07:45:57.381Z,97372.02
2023-04-01T07:48:32.988Z,97369.05
2023-04-01T07:51:09.992Z,97372.15
2023-04-01T07:53:50.759Z,97370.52
2023-04-01T07:56:32.879Z,97374.21
2023-04-01T07:59:23.666Z,97375.14
2023-04-01T08:02:19.846Z,97377.52
2023-04-01T08:04:58.178Z,97379.56
2023-04-01T08:07:42.376Z,97383.66
2023-04-01T08:10:52.830Z,97382.92
2023-04-01T08:14:02.163Z,97379.77
2023-04-01T08:17:02.682Z,97376.86
2023-04-01T08:19:53.255Z,97382.42
2023-04-01T08:22:30.623Z,97379.23
2023-04-01T08:25:03.955Z,97380.05
2023-04-01T08:27:37.790Z,97386.71
2023-04-01T08:30:35.330Z,97384.54
2023-04-01T08:33:29.106Z,97386.11
2023-04-01T08:36:12.617Z,97378.89
2023-04-01T08:38:45.448Z,97378.03
2023-04-01T08:41:36.851Z,97376.05
2023-04-01T08:45:01.847Z,97375.89
2023-04-01T08:47:51.333Z,97366.88
2023-04-01T08:50:35.262Z,97364.36
2023-04-01T08:54:05.699Z,97361.56
2023-04-01T08:56:43.122Z,97356.61
2023-04-01T08:59:32.673Z,97356.33
2023-04-01T09:02:27.581Z,97357.49
2023-04-01T09:05:27.897Z,97357.27
2023-04-01T09:08:21.578Z,97355.55
2023-04-01T09:11:01.830Z,97351.92
2023-04-01T09:14:39.625Z,97344.30
2023-04-01T09:17:27.265Z,97338.71
2023-04-01T09:20:45.608Z,97336.11
2023-04-01T09:23:36.308Z,97343.77
2023-04-01T09:26:07.868Z,97346.27
2023-04-01T09:28:42.589Z,97344.23
2023-04-01T09:31:17.364Z,97337.52
2023-04-01T09:34:09.051Z,97336.18
2023-04-01T09:37:18.789Z,97331.41
2023-04-01T09:39:54.779Z,97335.16
2023-04-01T09:42:41.136Z,97337.46
2023-04-01T09:45:22.828Z,97336.50
2023-04-01T09:48:22.955Z,97335.80
2023-04-01T09:50:54.841Z,97328.79
2023-04-01T09:53:35.501Z,97330.79
2023-04-01T09:56:28.742Z,97336.19
2023-04-01T09:59:24.580Z,97334.42
2023-04-01T10:02:30.067Z,97335.21
2023-04-01T10:05:36.791Z,97332.32
2023-04-01T10:08:11.817Z,97332.17
2023-04-01T10:11:14.534Z,97329.84
2023-04-01T10:14:19.345Z,97332.83
2023-04-01T10:17:19.963Z,97328.83
2023-04-01T10:20:11.808Z,97324.75
2023-04-01T10:23:01.953Z,97327.24
2023-04-01T10:25:53.094Z,97327.41
2023-04-01T10:28:37.248Z,97322.80
2023-04-01T10:31:42.435Z,97326.95
2023-04-01T10:34:48.403Z,97327.55
2023-04-01T10:38:02.263Z,97317.20
2023-04-01T10:40:45.001Z,97312.11
2023-04-01T10:44:23.741Z,97302.77
2023-04-01T10:46:58.579Z,97304.91
2023-04-01T10:49:55.095Z,97303.71
2023-04-01T10:52:49.131Z,97304.17
2023-04-01T10:55:55.346Z,97302.66
2023-04-01T10:59:39.603Z,97299.90
2023-04-01T11:03:21.520Z,97295.16
2023-04-01T11:06:40.474Z,97300.36
2023-04-01T11:09:28.817Z,97299.91
2023-04-01T11:12:00.289Z,97303.42
2023-04-01T11:14:37.142Z,97299.50
2023-04-01T11:17:37.389Z,97305.29
2023-04-01T11:20:44.284Z,97307.58
2023-04-01T11:23:19.309Z,97308.86
2023-04-01T11:25:54.007Z,97309.12
2023-04-01T11:29:01.216Z,97312.00
2023-04-01T11:31:38.626Z,97310.99
2023-04-01T11:34:29.089Z,97305.90
2023-04-01T11:37:11.076Z,97306.60
2023-04-01T11:40:07.935Z,97305.95
2023-04-01T11:43:38.481Z,97299.30
2023-04-01T11:46:43.116Z,97302.08
2023-04-01T11:49:22.016Z,97298.92
2023-04-01T11:52:21.219Z,97304.60
2023-04-01T11:55:19.712Z,97309.42
2023-04-01T11:57:58.015Z,97303.47
2023-04-01T12:00:49.854Z,97308.27
2023-04-01T12:03:28.149Z,97304.14
2023-04-01T12:06:28.088Z,97308.95
2023-04-01T12:09:16.217Z,97302.98
2023-04-01T12:12:10.638Z,97305.08
2023-04-01T12:15:01.913Z,97308.65
2023-04-01T12:18:00.489Z,97309.53
2023-04-01T12:20:51.770Z,97307.51
2023-04-01T12:23:29.662Z,97306.08
2023-04-01T12:26:11.516Z,97305.80
2023-04-01T12:28:59.568Z,97304.40
2023-04-01T12:31:39.737Z,97303.63
2023-04-01T12:34:45.606Z,97300.48
2023-04-01T12:37:20.004Z,97299.36
2023-04-01T12:40:16.422Z,97300.04
2023-04-01T12:42:47.872Z,97298.15
2023-04-01T12:45:42.074Z,97298.95
2023-04-01T12:48:23.036Z,97296.25
2023-04-01T12:51:16.708Z,97301.01
2023-04-01T12:54:13.951Z,97298.89
2023-04-01T12:57:20.556Z,97298.02
2023-04-01T13:00:27.857Z,97298.05
2023-04-01T13:03:39.050Z,97296.27
2023-04-01T13:06:26.557Z,97294.67
2023-04-01T13:09:27.694Z,97291.32
2023-04-01T13:12:17.712Z,97290.36
2023-04-01T13:14:58.471Z,97291.40
2023-04-01T13:17:45.569Z,97289.07
2023-04-01T13:20:22.938Z,97286.04
2023-04-01T13:23:20.813Z,97286.62
2023-04-01T13:26:13.769Z,97291.81
2023-04-01T13:28:55.532Z,97288.07
2023-04-01T13:31:29.338Z,97290.88
2023-04-01T13:34:14.736Z,97295.73
2023-04-01T13:37:10.566Z,97296.77
2023-04-01T13:39:49.895Z,97298.33
2023-04-01T13:42:30.259Z,97301.38
2023-04-01T13:45:04.681Z,97304.70
2023-04-01T13:48:11.049Z,97304.83
2023-04-01T13:51:28.983Z,97302.73
2023-04-01T13:54:16.516Z,97311.02
2023-04-01T13:57:11.335Z,97312.48
2023-04-01T13:59:49.722Z,97318.09
2023-04-01T14:02:30.518Z,97321.00
2023-04-01T14:05:42.210Z,97325.61
2023-04-01T14:08:19.191Z,97327.09
2023-04-01T14:11:16.637Z,97329.51
2023-04-01T14:14:10.815Z,97329.37
2023-04-01T14:17:20.906Z,97331.36
2023-04-01T14:20:17.416Z,97331.85
2023-04-01T14:23:19.679Z,97335.65
2023-04-01T14:26:02.603Z,97332.98
2023-04-01T14:28:46.032Z,97329.42
2023-04-01T14:31:39.533Z,97328.16
2023-04-01T14:34:16.293Z,97325.57
2023-04-01T14:36:53.358Z,97328.44
2023-04-01T14:39:21.734Z,97329.31
2023-04-01T14:42:03.908Z,97326.96
2023-04-01T14:44:50.849Z,97325.10
2023-04-01T14:48:01.728Z,97323.30
2023-04-01T14:50:32.148Z,97320.73
2023-04-01T14:53:23.675Z,97322.72
2023-04-01T14:55:54.096Z,97323.66
2023-04-01T14:58:26.375Z,97325.27
2023-04-01T15:01:11.257Z,97324.92
2023-04-01T15:03:56.917Z,97321.66
2023-04-01T15:07:04.042Z,97328.77
2023-04-01T15:09:48.095Z,97329.77
2023-04-01T15:12:45.925Z,97327.25
2023-04-01T15:15:39.439Z,97324.02
2023-04-01T15:18:29.983Z,97318.98
2023-04-01T15:21:20.718Z,97318.61
2023-04-01T15:24:19.383Z,97322.27
2023-04-01T15:27:13.789Z,97328.41
2023-04-01T15:29:54.440Z,97330.61
2023-04-01T15:32:26.160Z,97329.14
2023-04-01T15:35:00.174Z,97331.07
2023-04-01T15:37:46.602Z,97330.82
2023-04-01T15:40:27.175Z,97336.07
2023-04-01T15:43:01.804Z,97336.13
2023-04-01T15:45:36.551Z,97344.74
2023-04-01T15:48:30.168Z,97347.23
2023-04-01T15:51:10.560Z,97350.27
2023-04-01T15:53:49.079Z,97353.67
2023-04-01T15:56:42.418Z,97355.86
2023-04-01T15:59:30.479Z,97355.41
2023-04-01T16:02:42.237Z,97358.64
2023-04-01T16:05:30.903Z,97360.40
2023-04-01T16:08:17.901Z,97362.34
2023-04-01T16:10:59.392Z,97364.58
2023-04-01T16:13:59.468Z,97363.02
2023-04-01T16:16:59.873Z,97362.67
2023-04-01T16:19:50.371Z,97363.36
2023-04-01T16:23:00.121Z,97364.88
2023-04-01T16:25:40.573Z,97372.05
2023-04-01T16:28:38.324Z,97370.47
2023-04-01T16:31:31.943Z,97372.02
2023-04-01T16:34:32.173Z,97375.88
2023-04-01T16:37:16.889Z,97375.83
2023-04-01T16:39:54.900Z,97379.62
2023-04-01T16:42:36.542Z,97381.17
2023-04-01T16:45:08.153Z,97382.45
2023-04-01T16:47:58.978Z,97383.45
2023-04-01T16:51:05.547Z,97383.56
2023-04-01T16:53:47.236Z,97378.38
2023-04-01T16:56:22.214Z,97384.69
2023-04-01T16:59:18.885Z,97386.23
2023-04-01T17:02:10.508Z,97386.13
2023-04-01T17:04:46.368Z,97388.66
2023-04-01T17:07:23.354Z,97393.06
2023-04-01T17:09:57.391Z,97396.54
2023-04-01T17:12:34.764Z,97395.77
2023-04-01T17:15:23.429Z,97395.58
2023-04-01T17:18:13.081Z,97394.77
2023-04-01T17:20:54.159Z,97402.20
2023-04-01T17:23:27.452Z,97403.39
2023-04-01T17:26:26.200Z,97405.30
2023-04-01T17:29:18.175Z,97407.19
2023-04-01T17:31:55.363Z,97405.33
2023-04-01T17:34:39.201Z,97415.55
2023-04-01T17:37:17.307Z,97414.12
2023-04-01T17:39:52.045Z,97418.80
2023-04-01T17:42:34.282Z,97421.98
2023-04-01T17:45:02.924Z,97421.65
2023-04-01T17:48:08.589Z,97425.82
2023-04-01T17:50:53.181Z,97426.45
2023-04-01T17:53:25.204Z,97425.59
2023-04-01T17:56:00.139Z,97426.34
2023-04-01T17:59:08.603Z,97430.80
2023-04-01T18:02:08.981Z,97433.13
2023-04-01T18:04:43.291Z,97429.02
2023-04-01T18:07:25.491Z,97428.14
2023-04-01T18:10:22.586Z,97432.44
2023-04-01T18:12:59.766Z,97430.42
2023-04-01T18:15:59.872Z,97431.84
2023-04-01T18:18:38.264Z,97432.04
2023-04-01T18:21:45.251Z,97430.68
2023-04-01T18:24:28.999Z,97434.23
2023-04-01T18:27:05.944Z,97432.98
2023-04-01T18:29:56.059Z,97429.94
2023-04-01T18:32:30.052Z,97430.34
2023-04-01T18:35:36.379Z,97429.08
2023-04-01T18:38:14.013Z,97427.14
2023-04-01T18:40:52.957Z,97427.10
2023-04-01T18:43:43.360Z,97426.80
2023-04-01T18:46:19.423Z,97427.67
2023-04-01T18:49:06.840Z,97425.21
2023-04-01T18:51:58.478Z,97430.25
2023-04-01T18:54:35.953Z,97430.71
2023-04-01T18:57:24.709Z,97431.80
2023-04-01T18:59:58.230Z,97431.15
2023-04-01T19:02:29.013Z,97430.58
2023-04-01T19:05:34.078Z,97436.73
2023-04-01T19:08:32.279Z,97435.17
2023-04-01T19:11:03.309Z,97435.90
2023-04-01T19:13:41.311Z,97437.33
2023-04-01T19:16:45.220Z,97447.39
2023-04-01T19:19:19.892Z,97444.08
2023-04-01T19:22:14.329Z,97445.00
2023-04-01T19:24:58.162Z,97452.02
2023-04-01T19:27:32.995Z,97455.48
2023-04-01T19:30:10.796Z,97456.13
2023-04-01T19:32:58.222Z,97455.95
2023-04-01T19:36:04.460Z,97459.11
2023-04-01T19:38:40.917Z,97465.27
2023-04-01T19:41:41.924Z,97470.70
2023-04-01T19:44:24.648Z,97483.06
2023-04-01T19:46:55.666Z,97481.76
2023-04-01T19:49:37.764Z,97481.30
2023-04-01T19:52:16.374Z,97479.30
2023-04-01T19:55:06.083Z,97478.33
2023-04-01T19:57:48.109Z,97481.36
2023-04-01T20:00:27.526Z,97479.96
2023-04-01T20:03:05.179Z,97484.91
2023-04-01T20:06:00.284Z,97492.98
2023-04-01T20:08:46.282Z,97495.07
2023-04-01T20:11:37.416Z,97494.97
2023-04-01T20:14:21.370Z,97497.45
2023-04-01T20:17:21.966Z,97500.29
2023-04-01T20:19:56.892Z,97499.32
2023-04-01T20:22:44.435Z,97503.17
2023-04-01T20:25:22.632Z,97503.48
2023-04-01T20:28:13.057Z,97505.14
2023-04-01T20:31:06.805Z,97505.84
2023-04-01T20:34:27.616Z,97504.45
2023-04-01T20:37:12.954Z,97504.13
2023-04-01T20:40:04.149Z,97506.11
2023-04-01T20:42:51.010Z,97502.95
2023-04-01T20:45:34.473Z,97502.83
2023-04-01T20:48:28.011Z,97499.27
2023-04-01T20:51:05.131Z,97494.10
2023-04-01T20:54:01.939Z,97493.13
2023-04-01T20:56:36.636Z,97492.46
2023-04-01T20:59:30.960Z,97492.83
2023-04-01T21:02:03.335Z,97493.71
2023-04-01T21:04:32.548Z,97490.46
2023-04-01T21:07:17.538Z,97493.98
2023-04-01T21:10:24.785Z,97490.52
2023-04-01T21:13:06.271Z,97495.95
2023-04-01T21:16:02.844Z,97491.80
2023-04-01T21:26:16.081Z,97488.23
2023-04-01T21:29:19.277Z,97491.54
2023-04-01T21:32:13.257Z,97490.09
2023-04-01T21:34:56.596Z,97489.38
2023-04-01T21:37:32.769Z,97489.86
2023-04-01T21:40:11.056Z,97488.31
2023-04-01T21:43:01.967Z,97485.36
2023-04-01T21:46:06.134Z,97487.10
2023-04-01T21:48:41.934Z,97490.78
2023-04-01T21:51:48.609Z,97495.15
2023-04-01T21:54:20.330Z,97491.05
2023-04-01T21:57:21.772Z,97494.36
2023-04-01T22:00:18.901Z,97499.27
2023-04-01T22:03:26.738Z,97498.73
2023-04-01T22:06:11.770Z,97500.17
2023-04-01T22:08:54.557Z,97505.37
2023-04-01T22:11:35.737Z,97504.63
2023-04-01T22:14:21.438Z,97505.94
2023-04-01T22:17:18.309Z,97504.67
2023-04-01T22:19:51.991Z,97510.11
2023-04-01T22:22:52.397Z,97514.66
2023-04-01T22:25:34.674Z,97516.23
2023-04-01T22:28:09.230Z,97514.17
2023-04-01T22:30:50.709Z,97514.08
2023-04-01T22:33:55.544Z,97513.02
2023-04-01T22:36:46.449Z,97509.73
2023-04-01T22:39:19.208Z,97509.61
2023-04-01T22:41:52.559Z,97514.50
2023-04-01T22:44:43.532Z,97510.85
2023-04-01T22:47:18.415Z,97513.64
2023-04-01T22:50:00.662Z,97514.48
2023-04-01T22:52:34.921Z,97513.34
2023-04-01T22:55:13.735Z,97511.08
2023-04-01T22:57:51.022Z,97516.73
2023-04-01T23:00:21.843Z,97515.11
2023-04-01T23:03:08.038Z,97516.81
2023-04-01T23:05:43.970Z,97523.33
2023-04-01T23:08:33.997Z,97524.35
2023-04-01T23:11:07.685Z,97530.86
2023-04-01T23:13:41.213Z,97530.66
2023-04-01T23:16:09.703Z,97527.38
2023-04-01T23:19:09.071Z,97520.91
2023-04-01T23:22:01.375Z,97524.89
2023-04-01T23:24:35.310Z,97523.98
2023-04-01T23:27:24.900Z,97523.07
2023-04-01T23:29:53.799Z,97517.75
2023-04-01T23:32:28.349Z,97514.08
2023-04-01T23:34:58.624Z,97514.64
2023-04-01T23:37:27.852Z,97518.59
2023-04-01T23:39:57.946Z,97520.33
2023-04-01T23:42:33.942Z,97519.92
2023-04-01T23:45:07.199Z,97522.63
2023-04-01T23:47:38.819Z,97519.66
2023-04-01T23:50:24.835Z,97521.16
2023-04-01T23:52:58.334Z,97523.31
2023-04-01T23:55:28.706Z,97525.98
2023-04-01T23:58:07.898Z,97526.86
